Time;durP1;ratioP1;P1;durP2;ratioP2;P2;SDS_P1;SDS_P2;PMS_P1;PMS_P2;Temp;Humidity;BMP_temperature;BMP_pressure;BME280_temperature;BME280_humidity;BME280_pressure;Samples;Min_cycle;Max_cycle;Signal;HPM_P1;HPM_P2
2022/06/15 06:13:40;;;;;;;13.32;3.67;;;;;;;;;;5966187;23;20927;-70
2022/06/15 06:16:07;;;;;;;6.55;3.30;;;;;;;;;;4969824;28;20042;-69
2022/06/15 06:18:33;;;;;;;5.95;3.50;;;;;;;;;;4938611;28;20022;-71
2022/06/15 06:20:59;;;;;;;8.13;3.63;;;;;;;;;;4973331;28;20487;-70
2022/06/15 06:23:29;;;;;;;10.00;3.70;;;;;;;;;;4973000;28;20038;-71
2022/06/15 06:25:55;;;;;;;6.72;3.58;;;;;;;;;;4972753;28;20045;-71
2022/06/15 06:28:33;;;;;;;9.27;3.67;;;;;;;;;;4972600;28;20033;-70
2022/06/15 06:31:01;;;;;;;11.77;4.38;;;;;;;;;;4963547;28;20033;-70
2022/06/15 06:33:28;;;;;;;6.43;3.55;;;;;;;;;;4972672;28;20517;-70
2022/06/15 06:35:55;;;;;;;8.57;4.00;;;;;;;;;;4972553;28;20033;-71
2022/06/15 06:38:22;;;;;;;6.57;3.28;;;;;;;;;;4972302;28;20033;-71
2022/06/15 06:40:49;;;;;;;5.68;3.58;;;;;;;;;;4972207;28;20025;-71
2022/06/15 06:43:15;;;;;;;12.80;4.28;;;;;;;;;;4972262;28;20035;-71
2022/06/15 06:45:42;;;;;;;10.55;4.05;;;;;;;;;;4971853;28;20015;-71
2022/06/15 06:48:09;;;;;;;11.52;3.65;;;;;;;;;;4972177;28;20027;-71
2022/06/15 06:50:36;;;;;;;9.30;3.78;;;;;;;;;;4972372;28;20042;-71
2022/06/15 06:53:03;;;;;;;9.27;3.60;;;;;;;;;;4972210;28;20057;-71
2022/06/15 06:55:30;;;;;;;10.82;4.03;;;;;;;;;;4971641;28;20035;-71
2022/06/15 06:57:57;;;;;;;9.82;3.45;;;;;;;;;;4971995;28;20031;-71
2022/06/15 07:00:24;;;;;;;6.63;3.90;;;;;;;;;;4971628;28;20030;-70
2022/06/15 07:02:51;;;;;;;11.20;3.95;;;;;;;;;;4971709;28;20092;-70
2022/06/15 07:05:17;;;;;;;8.02;3.97;;;;;;;;;;4972021;28;20035;-71
2022/06/15 07:07:44;;;;;;;9.02;3.90;;;;;;;;;;4971977;28;20018;-71
2022/06/15 07:10:10;;;;;;;9.85;3.88;;;;;;;;;;4972116;28;20030;-70
2022/06/15 07:12:38;;;;;;;16.77;4.35;;;;;;;;;;4971717;28;20045;-71
2022/06/15 07:15:06;;;;;;;10.05;4.07;;;;;;;;;;4970848;28;20051;-71
2022/06/15 07:17:32;;;;;;;5.90;4.18;;;;;;;;;;4971587;28;20363;-71
2022/06/15 07:19:59;;;;;;;5.78;3.78;;;;;;;;;;4973604;28;20021;-71
2022/06/15 07:22:25;;;;;;;10.73;4.28;;;;;;;;;;4975736;28;20023;-71
2022/06/15 07:24:51;;;;;;;9.43;4.20;;;;;;;;;;4969804;28;20027;-71
2022/06/15 07:27:18;;;;;;;14.07;3.85;;;;;;;;;;4976433;28;20027;-72
2022/06/15 07:29:47;;;;;;;7.55;3.88;;;;;;;;;;4958290;28;20035;-71
2022/06/15 07:32:14;;;;;;;9.43;4.00;;;;;;;;;;4975277;28;20827;-71
2022/06/15 07:34:41;;;;;;;7.63;4.10;;;;;;;;;;4974925;28;20023;-68
2022/06/15 07:37:10;;;;;;;8.88;3.65;;;;;;;;;;4974717;28;20505;-62
2022/06/15 07:39:37;;;;;;;6.75;2.60;;;;;;;;;;4975086;28;20015;-62
2022/06/15 07:42:05;;;;;;;12.13;3.10;;;;;;;;;;4974455;28;20038;-62
2022/06/15 07:44:33;;;;;;;12.90;2.83;;;;;;;;;;4956842;28;20026;-62
2022/06/15 07:49:54;;;;;;;4.88;2.13;;;;;;;;;;4973195;28;20025;-62
2022/06/15 07:52:21;;;;;;;24.90;5.95;;;;;;;;;;4964429;28;20091;-62
2022/06/15 07:54:49;;;;;;;6.80;2.38;;;;;;;;;;4975548;28;20395;-62
2022/06/15 07:57:15;;;;;;;5.82;2.25;;;;;;;;;;4975971;28;20034;-62
2022/06/15 07:59:42;;;;;;;6.20;2.70;;;;;;;;;;4970896;28;20434;-62
2022/06/15 08:02:08;;;;;;;13.20;2.30;;;;;;;;;;4975058;28;20030;-62
2022/06/15 08:04:35;;;;;;;16.05;2.80;;;;;;;;;;4964759;28;20019;-62
2022/06/15 08:07:01;;;;;;;9.32;2.65;;;;;;;;;;4970514;28;20037;-62
2022/06/15 08:09:28;;;;;;;9.90;2.65;;;;;;;;;;4957827;28;20021;-62
2022/06/15 08:12:14;;;;;;;5.28;2.47;;;;;;;;;;4969145;28;20031;-62
2022/06/15 08:14:43;;;;;;;12.98;2.75;;;;;;;;;;4973646;28;20039;-62
2022/06/15 08:17:12;;;;;;;13.20;2.50;;;;;;;;;;4972685;28;20056;-62
2022/06/15 08:19:41;;;;;;;11.82;2.75;;;;;;;;;;4973950;28;20037;-62
2022/06/15 08:22:08;;;;;;;8.85;2.55;;;;;;;;;;4974819;28;20030;-62
2022/06/15 08:24:34;;;;;;;12.52;2.50;;;;;;;;;;4974885;28;20033;-62
2022/06/15 08:27:01;;;;;;;8.57;2.45;;;;;;;;;;4974480;28;20025;-62
2022/06/15 08:29:28;;;;;;;8.32;2.55;;;;;;;;;;4974301;28;20030;-62
2022/06/15 08:31:57;;;;;;;8.48;2.45;;;;;;;;;;4973830;28;20038;-62
2022/06/15 08:34:24;;;;;;;6.72;2.63;;;;;;;;;;4974798;28;20728;-62
2022/06/15 08:36:50;;;;;;;8.10;2.70;;;;;;;;;;4974811;28;20045;-62
2022/06/15 08:39:17;;;;;;;7.70;2.20;;;;;;;;;;4975214;28;20375;-62
2022/06/15 08:41:51;;;;;;;5.85;2.10;;;;;;;;;;4974093;28;20034;-62
2022/06/15 08:44:20;;;;;;;11.65;2.63;;;;;;;;;;4974328;28;20065;-62
2022/06/15 08:47:07;;;;;;;5.82;2.35;;;;;;;;;;4974132;28;20041;-62
2022/06/15 08:49:48;;;;;;;6.75;2.22;;;;;;;;;;4973819;28;20035;-64
2022/06/15 08:52:17;;;;;;;6.25;1.95;;;;;;;;;;4974177;28;20049;-67
2022/06/15 08:54:55;;;;;;;9.80;2.30;;;;;;;;;;4972540;28;20031;-64
2022/06/15 08:57:28;;;;;;;4.53;1.95;;;;;;;;;;4967889;28;20030;-66
2022/06/15 08:59:58;;;;;;;5.70;2.10;;;;;;;;;;4966371;28;20029;-69
2022/06/15 09:02:24;;;;;;;6.78;2.10;;;;;;;;;;4974259;28;20022;-66
2022/06/15 09:04:54;;;;;;;11.38;2.72;;;;;;;;;;4972702;28;20033;-68
2022/06/15 09:07:46;;;;;;;10.47;2.07;;;;;;;;;;4972967;28;20525;-68
2022/06/15 09:10:27;;;;;;;402.25;21.88;;;;;;;;;;4941218;28;20507;-69
2022/06/15 09:12:55;;;;;;;446.70;27.08;;;;;;;;;;4965694;28;20047;-67
2022/06/15 09:15:42;;;;;;;30.38;3.40;;;;;;;;;;4974331;28;20066;-66
2022/06/15 09:18:18;;;;;;;23.50;2.83;;;;;;;;;;4970726;28;20042;-65
2022/06/15 09:20:47;;;;;;;11.85;1.85;;;;;;;;;;4958957;28;20035;-66
2022/06/15 09:23:18;;;;;;;3.55;1.85;;;;;;;;;;4968752;28;20035;-67
2022/06/15 09:25:46;;;;;;;11.18;2.60;;;;;;;;;;4971960;28;20023;-65
2022/06/15 09:28:25;;;;;;;32.92;4.00;;;;;;;;;;4973716;28;20023;-67
2022/06/15 09:30:52;;;;;;;10.27;2.33;;;;;;;;;;4973215;28;20048;-66
2022/06/15 09:33:21;;;;;;;17.02;2.30;;;;;;;;;;4973971;28;20022;-66
2022/06/15 09:36:02;;;;;;;5.00;2.00;;;;;;;;;;4968057;28;20023;-67
2022/06/15 09:38:32;;;;;;;8.73;2.00;;;;;;;;;;4970446;28;20553;-67
2022/06/15 09:41:21;;;;;;;6.85;2.13;;;;;;;;;;4972655;28;20023;-67
2022/06/15 09:44:03;;;;;;;8.32;2.20;;;;;;;;;;4971284;28;20019;-64
2022/06/15 09:46:33;;;;;;;5.28;2.20;;;;;;;;;;4967904;28;20091;-63
2022/06/15 09:49:21;;;;;;;9.57;2.10;;;;;;;;;;4970590;28;20027;-64
2022/06/15 09:51:56;;;;;;;6.22;2.33;;;;;;;;;;4971555;28;20054;-65
2022/06/15 09:54:32;;;;;;;6.07;1.90;;;;;;;;;;4965717;28;20410;-64
2022/06/15 09:56:59;;;;;;;8.82;2.17;;;;;;;;;;4971452;28;20384;-64
2022/06/15 09:59:26;;;;;;;3.97;2.15;;;;;;;;;;4972071;28;20453;-63
2022/06/15 10:01:53;;;;;;;6.53;2.13;;;;;;;;;;4971813;28;20031;-65
2022/06/15 10:04:21;;;;;;;9.75;2.28;;;;;;;;;;4971358;28;20172;-65
2022/06/15 10:06:51;;;;;;;6.53;2.10;;;;;;;;;;4971852;28;20033;-65
2022/06/15 10:09:19;;;;;;;5.47;2.00;;;;;;;;;;4955387;28;20023;-65
2022/06/15 10:11:48;;;;;;;9.32;1.75;;;;;;;;;;4959997;28;20049;-65
2022/06/15 10:14:18;;;;;;;5.60;1.90;;;;;;;;;;4966746;28;20042;-64
2022/06/15 10:16:51;;;;;;;4.35;1.77;;;;;;;;;;4970812;28;20031;-64
2022/06/15 10:19:17;;;;;;;4.53;1.80;;;;;;;;;;4970873;28;20085;-65
2022/06/15 10:21:50;;;;;;;7.85;1.98;;;;;;;;;;4971731;28;20553;-65
2022/06/15 10:24:28;;;;;;;15.77;2.20;;;;;;;;;;4970603;28;20027;-65
2022/06/15 10:27:13;;;;;;;7.07;1.60;;;;;;;;;;4970284;28;20041;-64
2022/06/15 10:29:39;;;;;;;4.47;1.98;;;;;;;;;;4971441;28;20033;-64
2022/06/15 10:32:10;;;;;;;4.00;1.80;;;;;;;;;;4971047;28;20125;-64
2022/06/15 10:34:50;;;;;;;5.70;1.92;;;;;;;;;;4971153;28;20038;-64
2022/06/15 10:37:45;;;;;;;4.20;1.52;;;;;;;;;;4971178;28;20033;-64
2022/06/15 10:40:21;;;;;;;4.30;1.40;;;;;;;;;;4946154;28;20043;-65
2022/06/15 10:42:51;;;;;;;7.78;1.83;;;;;;;;;;4971515;28;20588;-65
2022/06/15 10:45:37;;;;;;;4.50;1.73;;;;;;;;;;4971583;28;20383;-64
2022/06/15 10:48:06;;;;;;;4.45;1.40;;;;;;;;;;4972000;28;20022;-64
2022/06/15 10:50:44;;;;;;;10.40;1.95;;;;;;;;;;4971433;28;20403;-65
2022/06/15 10:53:31;;;;;;;5.00;1.83;;;;;;;;;;4965960;28;20038;-64
2022/06/15 11:04:25;;;;;;;6.15;1.75;;;;;;;;;;4971325;28;20031;-65
2022/06/15 11:06:53;;;;;;;5.55;1.70;;;;;;;;;;4955528;28;20027;-65
2022/06/15 11:09:31;;;;;;;5.93;1.95;;;;;;;;;;4967917;28;20037;-64
2022/06/15 11:12:00;;;;;;;7.10;2.00;;;;;;;;;;4971172;28;20046;-64
2022/06/15 11:14:43;;;;;;;5.07;1.80;;;;;;;;;;4971300;28;20552;-65
2022/06/15 11:20:03;;;;;;;5.18;2.00;;;;;;;;;;4971167;28;20035;-65
2022/06/15 11:22:30;;;;;;;4.78;1.80;;;;;;;;;;4970968;28;20022;-65
2022/06/15 11:25:06;;;;;;;6.85;1.95;;;;;;;;;;4971733;28;20037;-65
2022/06/15 11:27:52;;;;;;;6.78;1.77;;;;;;;;;;4959266;28;20037;-65
2022/06/15 11:30:28;;;;;;;4.97;2.00;;;;;;;;;;4971100;28;20085;-65
2022/06/15 11:32:59;;;;;;;6.75;2.03;;;;;;;;;;4970316;28;20049;-64
2022/06/15 11:35:43;;;;;;;18.92;2.20;;;;;;;;;;4968914;28;20398;-64
2022/06/15 11:38:09;;;;;;;3.97;1.63;;;;;;;;;;4965248;28;20030;-65
2022/06/15 11:40:51;;;;;;;3.83;1.80;;;;;;;;;;4969916;28;20011;-65
2022/06/15 11:43:22;;;;;;;6.15;1.90;;;;;;;;;;4970026;28;20443;-65
2022/06/15 11:45:49;;;;;;;3.75;1.63;;;;;;;;;;4971032;28;20031;-64
2022/06/15 11:48:23;;;;;;;6.60;1.92;;;;;;;;;;4971086;28;20450;-64
2022/06/15 11:50:50;;;;;;;4.20;1.40;;;;;;;;;;4969714;28;20495;-64
2022/06/15 11:53:42;;;;;;;6.88;1.58;;;;;;;;;;4970951;28;20035;-64
2022/06/15 11:56:13;;;;;;;7.78;1.80;;;;;;;;;;4970524;28;20023;-64
2022/06/15 11:58:40;;;;;;;4.82;1.77;;;;;;;;;;4970232;28;20372;-64
2022/06/15 12:01:06;;;;;;;3.97;1.60;;;;;;;;;;4970331;28;20037;-64
2022/06/15 12:03:44;;;;;;;3.50;1.40;;;;;;;;;;4970397;28;20138;-64
2022/06/15 12:06:19;;;;;;;3.47;1.80;;;;;;;;;;4965309;28;20039;-64
2022/06/15 12:08:45;;;;;;;7.10;1.60;;;;;;;;;;4973499;28;20047;-64
2022/06/15 12:12:37;;;;;;;3.85;1.65;;;;;;;;;;4974352;28;20104;-64
2022/06/15 12:14:27;;;;;;;7.65;2.17;;;;;;;;;;4973703;28;20035;-64
2022/06/15 12:17:04;;;;;;;7.53;1.65;;;;;;;;;;4956192;28;20042;-64
2022/06/15 12:19:50;;;;;;;6.47;1.70;;;;;;;;;;4972618;28;20471;-64
2022/06/15 12:22:19;;;;;;;5.15;1.65;;;;;;;;;;4973698;28;20410;-64
2022/06/15 12:24:51;;;;;;;3.00;1.65;;;;;;;;;;4973837;28;20027;-64
2022/06/15 12:27:22;;;;;;;5.10;1.80;;;;;;;;;;4969812;28;20048;-64
2022/06/15 12:29:55;;;;;;;4.40;1.52;;;;;;;;;;4973548;28;20027;-64
2022/06/15 12:32:37;;;;;;;5.40;1.67;;;;;;;;;;4955991;28;20459;-64
2022/06/15 12:35:10;;;;;;;3.45;1.63;;;;;;;;;;4973306;28;20023;-64
2022/06/15 12:37:41;;;;;;;5.32;1.73;;;;;;;;;;4970874;28;20042;-64
2022/06/15 12:40:13;;;;;;;7.43;1.63;;;;;;;;;;4971435;28;20039;-64
2022/06/15 12:42:41;;;;;;;4.63;1.40;;;;;;;;;;4973143;28;20035;-64
2022/06/15 12:45:23;;;;;;;5.85;1.75;;;;;;;;;;4970145;28;20093;-64
2022/06/15 12:48:09;;;;;;;8.18;1.73;;;;;;;;;;4972240;28;20039;-63
2022/06/15 12:50:38;;;;;;;9.55;1.92;;;;;;;;;;4964817;28;20515;-63
2022/06/15 12:53:11;;;;;;;8.75;1.67;;;;;;;;;;4966911;28;20039;-64
2022/06/15 12:55:47;;;;;;;7.43;1.83;;;;;;;;;;4971379;28;20701;-64
2022/06/15 12:58:42;;;;;;;6.68;2.03;;;;;;;;;;4973594;28;20033;-64
2022/06/15 13:01:08;;;;;;;13.95;1.50;;;;;;;;;;4897984;29;20043;-63
2022/06/15 13:03:47;;;;;;;4.85;1.83;;;;;;;;;;4910602;29;20393;-64
2022/06/15 13:06:30;;;;;;;6.65;1.73;;;;;;;;;;4912947;29;20036;-64
2022/06/15 13:09:02;;;;;;;12.15;2.17;;;;;;;;;;4912707;29;20040;-62
2022/06/15 13:11:29;;;;;;;10.35;2.10;;;;;;;;;;4907814;29;20059;-62
2022/06/15 13:13:56;;;;;;;7.03;1.98;;;;;;;;;;4908328;29;20120;-64
2022/06/15 13:16:36;;;;;;;7.15;1.80;;;;;;;;;;4908569;29;20044;-64
2022/06/15 13:19:04;;;;;;;6.50;1.83;;;;;;;;;;4911447;29;20040;-64
2022/06/15 13:21:49;;;;;;;12.63;2.00;;;;;;;;;;4910298;29;20046;-64
2022/06/15 13:24:16;;;;;;;5.88;1.90;;;;;;;;;;4899341;29;20055;-64
2022/06/15 13:26:42;;;;;;;6.90;1.90;;;;;;;;;;4907632;29;20075;-64
2022/06/15 13:29:11;;;;;;;4.93;2.17;;;;;;;;;;4908648;29;20412;-64
2022/06/15 13:31:43;;;;;;;10.32;2.15;;;;;;;;;;4908019;29;20051;-64
2022/06/15 13:34:11;;;;;;;10.48;2.00;;;;;;;;;;4910864;29;20042;-64
2022/06/15 13:36:38;;;;;;;7.70;2.20;;;;;;;;;;4917592;28;20456;-63
2022/06/15 13:39:25;;;;;;;14.18;2.50;;;;;;;;;;4972931;28;20068;-62
2022/06/15 13:42:10;;;;;;;12.43;2.50;;;;;;;;;;4972021;28;20043;-62
2022/06/15 13:44:50;;;;;;;16.38;2.72;;;;;;;;;;4971922;28;20566;-65
2022/06/15 13:47:16;;;;;;;;;;;;;;;;;;4971763;28;20037;-65
2022/06/15 13:49:43;;;;;;;17.33;3.03;;;;;;;;;;4971193;28;20396;-66
2022/06/15 13:52:12;;;;;;;12.48;2.60;;;;;;;;;;4972150;28;20051;-64
2022/06/15 13:54:48;;;;;;;16.38;3.28;;;;;;;;;;4972523;28;20069;-66
2022/06/15 13:57:33;;;;;;;14.55;2.53;;;;;;;;;;4971948;28;20023;-66
2022/06/15 14:00:09;;;;;;;9.30;2.80;;;;;;;;;;4971905;28;20073;-66
2022/06/15 14:02:51;;;;;;;19.55;2.78;;;;;;;;;;4972366;28;20490;-66
2022/06/15 14:05:20;;;;;;;18.95;3.55;;;;;;;;;;4972384;28;20049;-66
2022/06/15 14:08:05;;;;;;;12.27;2.80;;;;;;;;;;4972489;28;20015;-65
2022/06/15 14:10:32;;;;;;;29.77;3.25;;;;;;;;;;4972478;28;20027;-66
2022/06/15 14:12:59;;;;;;;15.80;2.85;;;;;;;;;;4963097;28;20065;-65
2022/06/15 14:15:25;;;;;;;13.52;2.50;;;;;;;;;;4972059;28;20051;-66
2022/06/15 14:18:00;;;;;;;11.90;2.53;;;;;;;;;;4971945;28;20039;-65
2022/06/15 14:20:29;;;;;;;12.57;2.30;;;;;;;;;;4954925;28;20509;-66
2022/06/15 14:22:57;;;;;;;9.83;2.73;;;;;;;;;;4972414;28;20025;-65
2022/06/15 14:25:24;;;;;;;12.35;3.15;;;;;;;;;;4954877;28;20037;-65
2022/06/15 14:27:53;;;;;;;13.98;2.83;;;;;;;;;;4971946;28;20035;-66
2022/06/15 14:30:26;;;;;;;10.38;2.42;;;;;;;;;;4972592;28;20069;-66
2022/06/15 14:32:59;;;;;;;13.38;2.60;;;;;;;;;;4972354;28;20049;-66
2022/06/15 14:35:26;;;;;;;10.48;2.40;;;;;;;;;;4972561;28;20023;-65
2022/06/15 14:38:00;;;;;;;14.60;2.83;;;;;;;;;;4972313;28;20521;-66
2022/06/15 14:40:27;;;;;;;11.07;2.15;;;;;;;;;;4972389;28;20497;-66
2022/06/15 14:42:56;;;;;;;12.60;2.67;;;;;;;;;;4972716;28;20031;-66
2022/06/15 14:45:36;;;;;;;12.07;2.50;;;;;;;;;;4972279;28;20027;-66
2022/06/15 14:48:13;;;;;;;7.13;2.30;;;;;;;;;;4972340;28;20488;-66
2022/06/15 14:50:41;;;;;;;12.63;2.63;;;;;;;;;;4971912;28;20026;-66
2022/06/15 14:53:10;;;;;;;8.48;2.65;;;;;;;;;;4971952;28;20061;-66
2022/06/15 14:55:37;;;;;;;12.98;2.50;;;;;;;;;;4972223;28;20015;-66
2022/06/15 14:58:15;;;;;;;7.95;2.20;;;;;;;;;;4971819;28;20029;-65
2022/06/15 15:00:42;;;;;;;6.75;2.30;;;;;;;;;;4971819;28;20030;-66
2022/06/15 15:03:22;;;;;;;11.82;2.80;;;;;;;;;;4972509;28;20443;-66
2022/06/15 15:05:49;;;;;;;12.68;3.15;;;;;;;;;;4971939;28;20502;-66
2022/06/15 15:08:20;;;;;;;17.13;2.55;;;;;;;;;;4971794;28;20446;-66
2022/06/15 15:10:55;;;;;;;8.93;2.63;;;;;;;;;;4971711;28;20415;-66
2022/06/15 15:13:24;;;;;;;14.15;2.63;;;;;;;;;;4971523;28;20050;-65
2022/06/15 15:15:54;;;;;;;11.57;2.65;;;;;;;;;;4971551;28;20035;-66
2022/06/15 15:18:24;;;;;;;10.82;3.05;;;;;;;;;;4968137;28;20042;-65
2022/06/15 15:20:51;;;;;;;16.02;3.50;;;;;;;;;;4971969;28;20033;-66
2022/06/15 15:23:34;;;;;;;16.48;2.88;;;;;;;;;;4970597;28;20031;-66
2022/06/15 15:26:00;;;;;;;13.43;2.65;;;;;;;;;;4971685;28;20053;-66
2022/06/15 15:34:08;;;;;;;13.75;2.53;;;;;;;;;;4971598;28;20394;-66
2022/06/15 15:39:33;;;;;;;14.07;3.10;;;;;;;;;;4969127;28;20031;-65
2022/06/15 15:42:00;;;;;;;15.93;2.97;;;;;;;;;;4975478;28;20017;-66
2022/06/15 15:44:27;;;;;;;17.75;3.13;;;;;;;;;;4975350;28;20479;-65
2022/06/15 15:46:53;;;;;;;16.50;3.28;;;;;;;;;;4975229;28;20029;-66
2022/06/15 15:49:20;;;;;;;17.65;3.10;;;;;;;;;;4975264;28;20493;-65
2022/06/15 15:51:46;;;;;;;17.38;3.63;;;;;;;;;;4975463;28;20055;-66
2022/06/15 15:54:12;;;;;;;18.60;3.30;;;;;;;;;;4975736;28;20375;-66
2022/06/15 15:56:39;;;;;;;16.65;3.35;;;;;;;;;;4974956;28;20023;-66
2022/06/15 15:59:05;;;;;;;18.17;3.25;;;;;;;;;;4975235;28;20080;-66
2022/06/15 16:01:33;;;;;;;22.30;3.50;;;;;;;;;;4974991;28;20022;-66
2022/06/15 16:03:59;;;;;;;18.10;4.18;;;;;;;;;;4975021;28;20037;-66
2022/06/15 16:06:25;;;;;;;25.80;4.07;;;;;;;;;;4975511;28;20026;-66
2022/06/15 16:08:52;;;;;;;16.65;3.60;;;;;;;;;;4975209;28;20027;-66
2022/06/15 16:11:20;;;;;;;18.52;4.13;;;;;;;;;;4974838;28;20039;-65
2022/06/15 16:13:46;;;;;;;20.10;3.92;;;;;;;;;;4974916;28;20491;-65
2022/06/15 16:16:12;;;;;;;19.00;3.88;;;;;;;;;;4974969;28;20027;-65
2022/06/15 16:18:39;;;;;;;24.17;3.78;;;;;;;;;;4975122;28;20029;-66
2022/06/15 16:21:06;;;;;;;23.42;4.53;;;;;;;;;;4975202;28;20492;-65
2022/06/15 16:23:34;;;;;;;23.52;3.97;;;;;;;;;;4974860;28;20027;-65
2022/06/15 16:26:01;;;;;;;24.63;4.10;;;;;;;;;;4957023;28;20022;-65
2022/06/15 16:28:28;;;;;;;16.98;3.85;;;;;;;;;;4974815;28;20495;-65
2022/06/15 16:30:55;;;;;;;23.35;4.40;;;;;;;;;;4959529;28;20038;-66
2022/06/15 16:33:21;;;;;;;22.42;3.88;;;;;;;;;;4974947;28;20027;-66
2022/06/15 16:35:49;;;;;;;23.38;4.10;;;;;;;;;;4974405;28;20030;-65
2022/06/15 16:38:16;;;;;;;21.67;3.70;;;;;;;;;;4974285;28;20035;-65
2022/06/15 16:40:43;;;;;;;24.67;4.15;;;;;;;;;;4974237;28;20061;-65
2022/06/15 16:43:09;;;;;;;28.00;4.18;;;;;;;;;;4974512;28;20491;-65
2022/06/15 16:45:37;;;;;;;24.15;4.43;;;;;;;;;;4974318;28;20030;-65
2022/06/15 16:48:04;;;;;;;15.88;4.10;;;;;;;;;;4974691;28;20038;-65
2022/06/15 16:50:30;;;;;;;19.67;4.30;;;;;;;;;;4974437;28;20027;-65
2022/06/15 16:52:57;;;;;;;20.80;3.75;;;;;;;;;;4973665;28;20512;-65
2022/06/15 16:55:30;;;;;;;26.55;4.35;;;;;;;;;;4974082;28;20031;-65
2022/06/15 16:57:58;;;;;;;22.30;4.00;;;;;;;;;;4958867;28;20019;-65
2022/06/15 17:00:24;;;;;;;27.35;4.93;;;;;;;;;;4974713;28;20025;-65
2022/06/15 17:02:50;;;;;;;20.40;4.18;;;;;;;;;;4974061;28;20034;-65
2022/06/15 17:05:17;;;;;;;22.52;4.40;;;;;;;;;;4974189;28;20034;-66
2022/06/15 17:07:43;;;;;;;21.88;4.20;;;;;;;;;;4973993;28;20034;-65
2022/06/15 17:10:11;;;;;;;22.13;4.53;;;;;;;;;;4973502;28;20509;-65
2022/06/15 17:12:40;;;;;;;19.02;3.97;;;;;;;;;;4973764;28;20039;-65
2022/06/15 17:15:06;;;;;;;19.30;4.18;;;;;;;;;;4972307;28;20065;-65
2022/06/15 17:17:33;;;;;;;23.42;4.18;;;;;;;;;;4973708;28;20034;-65
2022/06/15 17:19:59;;;;;;;22.85;4.90;;;;;;;;;;4973682;28;20022;-65
2022/06/15 17:22:25;;;;;;;20.92;4.10;;;;;;;;;;4973685;28;20483;-65
2022/06/15 17:24:52;;;;;;;19.83;3.92;;;;;;;;;;4973480;28;20019;-66
2022/06/15 17:27:18;;;;;;;21.33;4.63;;;;;;;;;;4956695;28;20576;-65
2022/06/15 17:29:45;;;;;;;20.35;5.30;;;;;;;;;;4973615;28;20037;-65
2022/06/15 17:32:11;;;;;;;21.00;4.93;;;;;;;;;;4956302;28;20569;-65
2022/06/15 17:34:38;;;;;;;20.60;3.97;;;;;;;;;;4973385;28;20027;-65
2022/06/15 17:37:05;;;;;;;21.10;4.07;;;;;;;;;;4973383;28;20402;-65
2022/06/15 17:39:32;;;;;;;21.48;4.18;;;;;;;;;;4973055;28;20033;-65
2022/06/15 17:41:59;;;;;;;20.92;3.88;;;;;;;;;;4972985;28;20034;-65
2022/06/15 17:44:26;;;;;;;33.05;5.03;;;;;;;;;;4973144;28;20023;-66
2022/06/15 17:46:52;;;;;;;20.33;4.40;;;;;;;;;;4973106;28;20035;-65
2022/06/15 17:49:19;;;;;;;21.30;3.90;;;;;;;;;;4973504;28;20034;-66
2022/06/15 17:51:46;;;;;;;21.30;4.10;;;;;;;;;;4973341;28;20043;-65
2022/06/15 17:54:13;;;;;;;24.85;4.70;;;;;;;;;;4973221;28;20054;-65
2022/06/15 17:56:40;;;;;;;34.03;4.80;;;;;;;;;;4973030;28;20030;-65
2022/06/15 17:59:08;;;;;;;18.02;3.97;;;;;;;;;;4973209;28;20035;-65
2022/06/15 18:01:36;;;;;;;24.42;4.47;;;;;;;;;;4972921;28;20031;-65
2022/06/15 18:04:03;;;;;;;18.23;4.18;;;;;;;;;;4972193;28;20023;-65
2022/06/15 18:06:29;;;;;;;23.98;4.70;;;;;;;;;;4973082;28;20491;-65
2022/06/15 18:08:55;;;;;;;23.83;4.47;;;;;;;;;;4972665;28;20503;-65
2022/06/15 18:11:22;;;;;;;21.48;4.65;;;;;;;;;;4972804;28;20033;-65
2022/06/15 18:13:52;;;;;;;20.58;4.15;;;;;;;;;;4972687;28;20023;-65
2022/06/15 18:16:18;;;;;;;;;;;;;;;;;;4972996;28;20404;-65
2022/06/15 18:18:47;;;;;;;25.50;4.70;;;;;;;;;;4972461;28;20386;-65
2022/06/15 18:21:13;;;;;;;16.25;3.95;;;;;;;;;;4972740;28;20039;-66
2022/06/15 18:23:40;;;;;;;23.85;4.50;;;;;;;;;;4972454;28;20395;-65
2022/06/15 18:26:06;;;;;;;23.67;4.05;;;;;;;;;;4972444;28;20045;-65
2022/06/15 18:28:32;;;;;;;17.77;3.80;;;;;;;;;;4972425;28;20017;-65
2022/06/15 18:30:59;;;;;;;20.38;4.50;;;;;;;;;;4972649;28;20023;-65
2022/06/15 18:33:27;;;;;;;25.40;4.50;;;;;;;;;;4972682;28;20104;-65
2022/06/15 18:35:54;;;;;;;30.23;4.15;;;;;;;;;;4972035;28;20037;-65
2022/06/15 18:38:22;;;;;;;18.35;4.80;;;;;;;;;;4972246;28;20035;-65
2022/06/15 18:40:49;;;;;;;21.67;4.25;;;;;;;;;;4972148;28;20045;-65
2022/06/15 18:48:46;;;;;;;19.20;4.15;;;;;;;;;;4972136;28;20030;-65
2022/06/15 18:51:17;;;;;;;20.60;4.55;;;;;;;;;;4971114;28;20484;-65
2022/06/15 18:53:44;;;;;;;15.07;3.65;;;;;;;;;;4972014;28;20038;-66
2022/06/15 18:56:10;;;;;;;24.05;4.30;;;;;;;;;;4971757;28;20027;-65
2022/06/15 18:58:37;;;;;;;25.83;4.00;;;;;;;;;;4972081;28;20060;-65
2022/06/15 19:01:05;;;;;;;23.20;4.43;;;;;;;;;;4972383;28;20029;-65
2022/06/15 19:03:31;;;;;;;17.48;4.10;;;;;;;;;;4972006;28;20027;-65
2022/06/15 19:05:59;;;;;;;24.83;4.40;;;;;;;;;;4970610;28;20026;-65
2022/06/15 19:08:27;;;;;;;22.95;4.75;;;;;;;;;;4971868;28;20041;-65
2022/06/15 19:10:57;;;;;;;19.58;4.25;;;;;;;;;;4971956;28;20029;-65
2022/06/15 19:13:23;;;;;;;21.65;4.00;;;;;;;;;;4971735;28;20048;-65
2022/06/15 19:15:51;;;;;;;21.77;3.92;;;;;;;;;;4971524;28;20054;-65
2022/06/15 19:18:24;;;;;;;22.45;4.00;;;;;;;;;;4972534;28;20022;-65
2022/06/15 19:20:50;;;;;;;18.23;3.78;;;;;;;;;;4971350;28;20441;-65
2022/06/15 19:23:20;;;;;;;21.63;4.18;;;;;;;;;;4971666;28;20503;-65
2022/06/15 19:25:47;;;;;;;18.47;4.13;;;;;;;;;;4971773;28;20015;-65
2022/06/15 19:28:13;;;;;;;21.17;3.95;;;;;;;;;;4971811;28;20027;-65
2022/06/15 19:30:40;;;;;;;19.30;4.03;;;;;;;;;;4972046;28;20037;-65
2022/06/15 19:33:07;;;;;;;19.80;3.97;;;;;;;;;;4970094;28;20055;-65
2022/06/15 19:35:33;;;;;;;15.00;3.80;;;;;;;;;;4971517;28;20277;-65
2022/06/15 19:38:00;;;;;;;22.30;4.25;;;;;;;;;;4971403;28;20033;-65
2022/06/15 19:40:29;;;;;;;19.75;3.97;;;;;;;;;;4971896;28;20027;-65
2022/06/15 19:42:58;;;;;;;15.88;3.65;;;;;;;;;;4956217;28;20545;-65
2022/06/15 19:45:24;;;;;;;15.93;3.83;;;;;;;;;;4967117;28;20026;-65
2022/06/15 19:47:51;;;;;;;20.35;3.90;;;;;;;;;;4971558;28;20073;-65
2022/06/15 19:50:19;;;;;;;20.55;4.10;;;;;;;;;;4971320;28;20030;-65
2022/06/15 19:52:45;;;;;;;21.75;4.00;;;;;;;;;;4971452;28;20031;-65
2022/06/15 19:55:12;;;;;;;20.83;3.72;;;;;;;;;;4971576;28;20034;-65
2022/06/15 19:57:38;;;;;;;17.65;4.13;;;;;;;;;;4971603;28;20031;-65
2022/06/15 20:00:06;;;;;;;16.45;3.90;;;;;;;;;;4971766;28;20035;-65
2022/06/15 20:02:33;;;;;;;19.75;4.63;;;;;;;;;;4971169;28;20031;-65
2022/06/15 20:05:00;;;;;;;15.32;4.13;;;;;;;;;;4971671;28;20022;-65
2022/06/15 20:07:26;;;;;;;21.90;4.05;;;;;;;;;;4971568;28;20019;-65
2022/06/15 20:09:53;;;;;;;20.95;3.90;;;;;;;;;;4971452;28;20027;-65
2022/06/15 20:12:19;;;;;;;16.13;4.57;;;;;;;;;;4971639;28;20117;-65
2022/06/15 20:14:45;;;;;;;16.92;4.05;;;;;;;;;;4971049;28;20061;-65
2022/06/15 20:17:12;;;;;;;19.10;3.90;;;;;;;;;;4970932;28;20033;-65
2022/06/15 20:19:41;;;;;;;19.58;4.28;;;;;;;;;;4971201;28;20033;-65
2022/06/15 20:22:09;;;;;;;26.92;4.35;;;;;;;;;;4971141;28;20151;-65
2022/06/15 20:24:37;;;;;;;19.05;4.13;;;;;;;;;;4971398;28;20033;-65
2022/06/15 20:27:06;;;;;;;25.80;4.95;;;;;;;;;;4973519;28;20475;-65
2022/06/15 20:29:35;;;;;;;21.27;4.28;;;;;;;;;;4974867;28;20033;-65
2022/06/15 20:32:01;;;;;;;19.95;3.97;;;;;;;;;;4974082;28;20027;-65
2022/06/15 20:34:28;;;;;;;18.38;4.55;;;;;;;;;;4974680;28;20027;-65
2022/06/15 20:36:54;;;;;;;18.73;4.38;;;;;;;;;;4974360;28;20329;-65
2022/06/15 20:39:20;;;;;;;22.40;4.45;;;;;;;;;;4974984;28;20391;-65
2022/06/15 20:41:47;;;;;;;18.98;4.28;;;;;;;;;;4974488;28;20030;-65
2022/06/15 20:44:15;;;;;;;20.77;4.68;;;;;;;;;;4974272;28;20030;-65
2022/06/15 20:46:42;;;;;;;23.40;4.55;;;;;;;;;;4956634;28;20502;-66
2022/06/15 20:49:12;;;;;;;19.45;4.28;;;;;;;;;;4974355;28;20033;-65
2022/06/15 20:51:39;;;;;;;20.17;4.10;;;;;;;;;;4974088;28;20035;-65
2022/06/15 20:54:06;;;;;;;20.85;4.38;;;;;;;;;;4974570;28;20112;-65
2022/06/15 20:56:52;;;;;;;21.25;4.53;;;;;;;;;;4973973;28;20089;-65
2022/06/15 20:59:20;;;;;;;24.40;4.32;;;;;;;;;;4974284;28;20031;-65
2022/06/15 21:01:46;;;;;;;25.10;4.25;;;;;;;;;;4973764;28;20023;-65
2022/06/15 21:04:12;;;;;;;16.35;3.80;;;;;;;;;;4973999;28;20033;-65
2022/06/15 21:06:40;;;;;;;21.38;4.43;;;;;;;;;;4974138;28;20023;-65
2022/06/15 21:09:09;;;;;;;21.38;4.32;;;;;;;;;;4972706;28;20041;-65
2022/06/15 21:19:51;;;;;;;15.82;4.60;;;;;;;;;;4973854;28;20018;-65
2022/06/15 21:22:18;;;;;;;17.35;4.40;;;;;;;;;;4973642;28;20450;-65
2022/06/15 21:24:44;;;;;;;17.00;4.45;;;;;;;;;;4973716;28;20389;-65
2022/06/15 21:27:11;;;;;;;15.55;4.03;;;;;;;;;;4974159;28;20088;-65
2022/06/15 21:29:37;;;;;;;14.55;4.53;;;;;;;;;;4973136;28;20035;-65
2022/06/15 21:32:04;;;;;;;22.02;4.63;;;;;;;;;;4973318;28;20410;-65
2022/06/15 21:34:31;;;;;;;16.63;4.43;;;;;;;;;;4973527;28;20035;-65
2022/06/15 21:36:57;;;;;;;16.48;4.30;;;;;;;;;;4973222;28;20044;-65
2022/06/15 21:39:25;;;;;;;14.40;4.03;;;;;;;;;;4972984;28;20046;-65
2022/06/15 21:42:02;;;;;;;19.58;4.75;;;;;;;;;;4973244;28;20026;-65